St.peterburg Pilot — UAMI — position and weather

sailwx.info

Track history (hours):
 
Tides and Currents Weather Stations Pressure Air Temp Water Temp Dewpoint Dewpoint Depression Visibility Wind Speed Wind Dir Waves Ship Positions

St.peterburg Pilot

Last reported at 2015-Apr-30 20:08 UTC. Time now 2015-May-04 04:59 UTC.
Position N 60°00' E 029°37'.

Length 59 m; draft 3.9 m.

Type: Pilot. MMSI: 273436530.

Date/timePositionNaut miles runAvg speedWind from/ knotsBaromVisibWave heightAir tempDewpointWater temp
2015-Apr-30 20:08N 60°00' E 029°37'3 2.7
2015-Apr-30 19:11N 59°59' E 029°42'0 0.0
2015-Apr-30 18:23N 59°59' E 029°42'0 0.0
2015-Apr-30 17:04N 59°59' E 029°42'0 0.0
2015-Apr-30 16:31N 59°59' E 029°42'0 0.0
2015-Apr-30 15:33N 59°59' E 029°42'0 0.0
2015-Apr-30 07:19N 59°59' E 029°42'0 0.0
2015-Apr-30 05:30N 59°59' E 029°42'0 0.0
2015-Apr-30 02:24N 59°59' E 029°42'0 0.0
2015-Apr-30 01:22N 59°59' E 029°42'0 0.0
2015-Apr-30 00:03N 59°59' E 029°42'0 0.0
2015-Apr-29 23:33N 59°59' E 029°42'0 0.0
2015-Apr-29 22:23N 59°59' E 029°42'0 0.0
2015-Apr-29 21:19N 59°59' E 029°42'0 0.0
2015-Apr-29 20:28N 59°59' E 029°42'0 0.0
2015-Apr-29 19:23N 59°59' E 029°42'0 0.0
2015-Apr-29 18:20N 59°59' E 029°42'0 0.0
2015-Apr-29 17:32N 59°59' E 029°42'1 1.2
2015-Apr-29 16:33N 59°59' E 029°44'9 9.4
2015-Apr-29 15:33N 59°55' E 030°01'6 5.8
2015-Apr-29 14:33N 59°53' E 030°12'1 0.8
2015-Apr-29 13:33N 59°54' E 030°13'0 0.0
2015-Apr-29 12:31N 59°54' E 030°13'0 0.0
2015-Apr-29 11:33N 59°54' E 030°13'0 0.0
2015-Apr-29 10:33N 59°54' E 030°13'0 0.0
2015-Apr-29 09:30N 59°54' E 030°13'0 0.0
2015-Apr-29 08:30N 59°54' E 030°13'0 0.0
2015-Apr-29 07:33N 59°54' E 030°13'0 0.0
2015-Apr-29 06:33N 59°54' E 030°13'7 7.0
2015-Apr-29 05:33N 59°55' E 029°60'  
2015-Apr-24 10:24N 60°00' E 029°38'2 1.9
2015-Apr-24 09:11N 59°59' E 029°42'0 0.0
2015-Apr-24 08:31N 59°59' E 029°42'0 0.0
2015-Apr-24 06:21N 59°59' E 029°42'0 0.0
2015-Apr-24 05:22N 59°59' E 029°42'0 0.0
2015-Apr-24 04:24N 59°59' E 029°42'0 0.0
2015-Apr-24 03:09N 59°59' E 029°42'0 0.0
2015-Apr-24 02:10N 59°59' E 029°42'0 0.0
2015-Apr-24 01:24N 59°59' E 029°42'0 0.0
2015-Apr-24 00:26N 59°59' E 029°42'0 0.0
2015-Apr-23 23:27N 59°59' E 029°42'0 0.0
2015-Apr-23 19:30N 59°59' E 029°42'0 0.0
2015-Apr-23 16:27N 59°59' E 029°42'0 0.0
2015-Apr-23 15:17N 59°59' E 029°42'0 0.0
2015-Apr-23 14:31N 59°59' E 029°42'0 0.0
2015-Apr-23 13:30N 59°59' E 029°42'0 0.0
2015-Apr-23 11:03N 59°59' E 029°42'0 0.0
2015-Apr-23 10:31N 59°59' E 029°42'0 0.0
2015-Apr-23 09:27N 59°59' E 029°42'2 0.2
2015-Apr-22 23:12N 59°60' E 029°39'2 2.9
2015-Apr-22 22:29N 59°59' E 029°42'0 0.0
2015-Apr-22 21:27N 59°59' E 029°42'0 0.0
2015-Apr-22 18:22N 59°59' E 029°42'0 0.0
2015-Apr-22 13:20N 59°59' E 029°42'0 0.0
2015-Apr-22 12:29N 59°59' E 029°42'  
Track history (hours):
 
Tides and Currents Weather Stations Pressure Air Temp Water Temp Dewpoint Dewpoint Depression Visibility Wind Speed Wind Dir Waves Ship Positions

St.peterburg Pilot

Last reported at 2015-Apr-30 20:08 UTC. Time now 2015-May-04 04:59 UTC.
Position N 60°00' E 029°37'.

Length 59 m; draft 3.9 m.

Type: Pilot. MMSI: 273436530.

Date/timePositionNaut miles runAvg speedWind from/ knotsBaromVisibWave heightAir tempDewpointWater temp
2015-Apr-30 20:08N 60°00' E 029°37'3 2.7
2015-Apr-30 19:11N 59°59' E 029°42'0 0.0
2015-Apr-30 18:23N 59°59' E 029°42'0 0.0
2015-Apr-30 17:04N 59°59' E 029°42'0 0.0
2015-Apr-30 16:31N 59°59' E 029°42'0 0.0
2015-Apr-30 15:33N 59°59' E 029°42'0 0.0
2015-Apr-30 07:19N 59°59' E 029°42'0 0.0
2015-Apr-30 05:30N 59°59' E 029°42'0 0.0
2015-Apr-30 02:24N 59°59' E 029°42'0 0.0
2015-Apr-30 01:22N 59°59' E 029°42'0 0.0
2015-Apr-30 00:03N 59°59' E 029°42'0 0.0
2015-Apr-29 23:33N 59°59' E 029°42'0 0.0
2015-Apr-29 22:23N 59°59' E 029°42'0 0.0
2015-Apr-29 21:19N 59°59' E 029°42'0 0.0
2015-Apr-29 20:28N 59°59' E 029°42'0 0.0
2015-Apr-29 19:23N 59°59' E 029°42'0 0.0
2015-Apr-29 18:20N 59°59' E 029°42'0 0.0
2015-Apr-29 17:32N 59°59' E 029°42'1 1.2
2015-Apr-29 16:33N 59°59' E 029°44'9 9.4
2015-Apr-29 15:33N 59°55' E 030°01'6 5.8
2015-Apr-29 14:33N 59°53' E 030°12'1 0.8
2015-Apr-29 13:33N 59°54' E 030°13'0 0.0
2015-Apr-29 12:31N 59°54' E 030°13'0 0.0
2015-Apr-29 11:33N 59°54' E 030°13'0 0.0
2015-Apr-29 10:33N 59°54' E 030°13'0 0.0
2015-Apr-29 09:30N 59°54' E 030°13'0 0.0
2015-Apr-29 08:30N 59°54' E 030°13'0 0.0
2015-Apr-29 07:33N 59°54' E 030°13'0 0.0
2015-Apr-29 06:33N 59°54' E 030°13'7 7.0
2015-Apr-29 05:33N 59°55' E 029°60'  
2015-Apr-24 10:24N 60°00' E 029°38'2 1.9
2015-Apr-24 09:11N 59°59' E 029°42'0 0.0
2015-Apr-24 08:31N 59°59' E 029°42'0 0.0
2015-Apr-24 06:21N 59°59' E 029°42'0 0.0
2015-Apr-24 05:22N 59°59' E 029°42'0 0.0
2015-Apr-24 04:24N 59°59' E 029°42'0 0.0
2015-Apr-24 03:09N 59°59' E 029°42'0 0.0
2015-Apr-24 02:10N 59°59' E 029°42'0 0.0
2015-Apr-24 01:24N 59°59' E 029°42'0 0.0
2015-Apr-24 00:26N 59°59' E 029°42'0 0.0
2015-Apr-23 23:27N 59°59' E 029°42'0 0.0
2015-Apr-23 19:30N 59°59' E 029°42'0 0.0
2015-Apr-23 16:27N 59°59' E 029°42'0 0.0
2015-Apr-23 15:17N 59°59' E 029°42'0 0.0
2015-Apr-23 14:31N 59°59' E 029°42'0 0.0
2015-Apr-23 13:30N 59°59' E 029°42'0 0.0
2015-Apr-23 11:03N 59°59' E 029°42'0 0.0
2015-Apr-23 10:31N 59°59' E 029°42'0 0.0
2015-Apr-23 09:27N 59°59' E 029°42'2 0.2
2015-Apr-22 23:12N 59°60' E 029°39'2 2.9
2015-Apr-22 22:29N 59°59' E 029°42'0 0.0
2015-Apr-22 21:27N 59°59' E 029°42'0 0.0
2015-Apr-22 18:22N 59°59' E 029°42'0 0.0
2015-Apr-22 13:20N 59°59' E 029°42'0 0.0
2015-Apr-22 12:29N 59°59' E 029°42'  

Dump ship's entire track history